createdAt,value
2023-05-15T00:02:02.301Z,10.24
2023-05-15T00:04:29.202Z,10.19
2023-05-15T00:06:56.158Z,10.63
2023-05-15T00:09:23.094Z,10.23
2023-05-15T00:11:51.411Z,10.01
2023-05-15T00:14:18.963Z,10.53
2023-05-15T00:16:45.826Z,10.59
2023-05-15T00:19:12.823Z,10.12
2023-05-15T00:21:39.802Z,10.07
2023-05-15T00:24:06.685Z,10.40
2023-05-15T00:26:33.645Z,10.06
2023-05-15T00:29:00.695Z,10.09
2023-05-15T00:31:27.568Z,9.91
2023-05-15T00:33:54.479Z,9.74
2023-05-15T00:36:22.299Z,10.10
2023-05-15T00:38:49.102Z,9.90
2023-05-15T00:41:16.838Z,9.74
2023-05-15T00:43:44.125Z,10.11
2023-05-15T00:46:13.458Z,10.07
2023-05-15T00:48:42.302Z,9.85
2023-05-15T00:51:10.062Z,10.00
2023-05-15T00:53:38.865Z,9.75
2023-05-15T00:56:07.263Z,9.56
2023-05-15T00:58:34.466Z,9.53
2023-05-15T01:01:01.283Z,9.66
2023-05-15T01:03:28.979Z,9.36
2023-05-15T01:05:56.131Z,9.22
2023-05-15T01:08:50.015Z,9.14
2023-05-15T01:11:18.043Z,9.32
2023-05-15T01:13:45.037Z,9.04
2023-05-15T01:16:12.150Z,8.74
2023-05-15T01:18:39.110Z,9.08
2023-05-15T01:21:38.606Z,9.30
2023-05-15T01:24:23.657Z,9.68
2023-05-15T01:27:02.384Z,9.39
2023-05-15T01:29:42.899Z,9.11
2023-05-15T01:32:19.142Z,8.92
2023-05-15T01:34:58.243Z,9.17
2023-05-15T01:37:28.829Z,9.17
2023-05-15T01:40:02.729Z,9.05
2023-05-15T01:42:36.346Z,8.97
2023-05-15T01:45:08.432Z,8.94
2023-05-15T01:47:46.764Z,8.98
2023-05-15T01:50:16.232Z,9.27
2023-05-15T01:52:50.960Z,8.88
2023-05-15T01:55:20.832Z,8.65
2023-05-15T01:57:50.614Z,8.65
2023-05-15T02:00:18.748Z,8.67
2023-05-15T02:02:47.199Z,8.59
2023-05-15T02:05:15.016Z,8.35
2023-05-15T02:07:46.054Z,8.47
2023-05-15T02:10:13.559Z,8.74
2023-05-15T02:12:41.906Z,8.49
2023-05-15T02:15:10.822Z,8.55
2023-05-15T02:17:38.446Z,8.77
2023-05-15T02:20:08.835Z,8.65
2023-05-15T02:22:36.030Z,8.81
2023-05-15T02:25:06.061Z,8.65
2023-05-15T02:27:55.266Z,8.55
2023-05-15T02:31:09.570Z,8.70
2023-05-15T02:33:46.666Z,8.53
2023-05-15T02:36:21.020Z,8.40
2023-05-15T02:38:50.839Z,8.59
2023-05-15T02:41:18.503Z,8.65
2023-05-15T02:43:49.309Z,8.58
2023-05-15T02:46:18.037Z,8.35
2023-05-15T02:48:46.143Z,8.58
2023-05-15T02:51:13.899Z,8.35
2023-05-15T02:53:42.379Z,8.42
2023-05-15T02:56:10.319Z,8.33
2023-05-15T02:58:39.006Z,8.28
2023-05-15T03:01:06.339Z,8.41
2023-05-15T03:03:33.276Z,8.37
2023-05-15T03:06:03.255Z,8.28
2023-05-15T03:08:30.393Z,8.41
2023-05-15T03:10:58.174Z,8.17
2023-05-15T03:13:25.150Z,8.22
2023-05-15T03:15:53.062Z,8.20
2023-05-15T03:18:19.899Z,7.99
2023-05-15T03:20:49.362Z,8.24
2023-05-15T03:23:16.364Z,8.17
2023-05-15T03:25:43.301Z,8.24
2023-05-15T03:28:10.261Z,8.42
2023-05-15T03:30:37.396Z,8.32
2023-05-15T03:33:04.402Z,8.43
2023-05-15T03:35:32.727Z,8.63
2023-05-15T03:37:59.805Z,8.62
2023-05-15T03:40:26.579Z,8.44
2023-05-15T03:42:53.797Z,8.43
2023-05-15T03:45:21.541Z,8.70
2023-05-15T03:47:48.910Z,8.46
2023-05-15T03:50:16.053Z,8.95
2023-05-15T03:52:43.012Z,8.65
2023-05-15T03:55:10.065Z,8.83
2023-05-15T03:57:37.207Z,8.81
2023-05-15T04:00:10.336Z,8.89
2023-05-15T04:02:38.374Z,8.92
2023-05-15T04:05:06.009Z,8.82
2023-05-15T04:07:36.895Z,9.03
2023-05-15T04:10:04.655Z,9.28
2023-05-15T04:12:35.914Z,9.63
2023-05-15T04:15:16.686Z,9.65
2023-05-15T04:17:44.938Z,9.90
2023-05-15T04:20:15.148Z,10.19
2023-05-15T04:22:43.765Z,10.44
2023-05-15T04:25:11.756Z,11.34
2023-05-15T04:27:39.077Z,12.37
2023-05-15T04:30:18.642Z,13.55
2023-05-15T04:32:49.009Z,14.56
2023-05-15T04:35:16.185Z,15.56
2023-05-15T04:37:45.973Z,16.25
2023-05-15T04:40:15.146Z,17.08
2023-05-15T04:42:42.372Z,17.88
2023-05-15T04:45:09.554Z,18.66
2023-05-15T04:47:36.866Z,19.34
2023-05-15T04:50:04.210Z,20.00
2023-05-15T04:52:31.182Z,20.57
2023-05-15T04:54:58.439Z,21.18
2023-05-15T04:57:26.078Z,21.77
2023-05-15T04:59:53.205Z,22.28
2023-05-15T05:02:23.400Z,22.91
2023-05-15T05:04:50.872Z,23.32
2023-05-15T05:07:17.924Z,23.79
2023-05-15T05:09:45.308Z,24.27
2023-05-15T05:12:12.221Z,24.73
2023-05-15T05:14:40.899Z,25.39
2023-05-15T05:17:08.348Z,25.87
2023-05-15T05:19:35.404Z,26.37
2023-05-15T05:22:05.577Z,26.81
2023-05-15T05:24:33.086Z,27.40
2023-05-15T05:27:00.602Z,27.93
2023-05-15T05:29:27.868Z,28.42
2023-05-15T05:31:55.000Z,28.67
2023-05-15T05:34:22.484Z,29.08
2023-05-15T05:36:50.246Z,29.62
2023-05-15T05:39:17.665Z,30.10
2023-05-15T05:41:45.090Z,30.59
2023-05-15T05:44:12.092Z,30.87
2023-05-15T05:46:39.177Z,31.12
2023-05-15T05:49:06.236Z,29.87
2023-05-15T05:51:33.399Z,28.72
2023-05-15T05:54:00.258Z,29.38
2023-05-15T05:56:27.443Z,30.73
2023-05-15T05:58:54.784Z,31.80
2023-05-15T06:01:21.826Z,32.56
2023-05-15T06:03:48.977Z,33.27
2023-05-15T06:06:15.879Z,33.77
2023-05-15T06:08:42.817Z,33.99
2023-05-15T06:11:09.978Z,33.93
2023-05-15T06:13:37.248Z,33.95
2023-05-15T06:16:04.360Z,34.37
2023-05-15T06:18:31.389Z,34.30
2023-05-15T06:21:00.416Z,34.49
2023-05-15T06:23:28.066Z,34.74
2023-05-15T06:25:55.337Z,33.94
2023-05-15T06:28:22.238Z,33.97
2023-05-15T06:30:49.302Z,35.14
2023-05-15T06:33:16.174Z,36.18
2023-05-15T06:35:43.140Z,36.56
2023-05-15T06:38:12.282Z,37.35
2023-05-15T06:40:39.199Z,38.13
2023-05-15T06:43:06.330Z,38.60
2023-05-15T06:45:33.251Z,39.03
2023-05-15T06:48:01.824Z,39.47
2023-05-15T06:50:29.296Z,40.03
2023-05-15T06:52:56.174Z,40.26
2023-05-15T06:55:23.263Z,40.97
2023-05-15T06:57:50.654Z,41.30
2023-05-15T07:00:17.908Z,41.74
2023-05-15T07:02:44.777Z,41.78
2023-05-15T07:05:11.951Z,42.37
2023-05-15T07:07:39.202Z,42.56
2023-05-15T07:10:08.742Z,43.17
2023-05-15T07:12:35.586Z,43.49
2023-05-15T07:15:02.637Z,43.53
2023-05-15T07:17:31.846Z,43.41
2023-05-15T07:19:58.735Z,43.35
2023-05-15T07:22:28.733Z,43.85
2023-05-15T07:24:55.498Z,43.85
2023-05-15T07:27:22.599Z,43.87
2023-05-15T07:29:49.452Z,44.42
2023-05-15T07:32:16.339Z,45.13
2023-05-15T07:34:43.389Z,45.18
2023-05-15T07:37:10.361Z,45.51
2023-05-15T07:39:37.397Z,45.51
2023-05-15T07:42:04.452Z,46.09
2023-05-15T07:44:31.436Z,46.71
2023-05-15T07:47:02.562Z,47.07
2023-05-15T07:49:29.741Z,47.39
2023-05-15T07:51:56.755Z,46.35
2023-05-15T07:54:23.763Z,46.75
2023-05-15T07:56:50.625Z,46.88
2023-05-15T07:59:17.575Z,46.97
2023-05-15T08:01:44.453Z,47.55
2023-05-15T08:04:12.277Z,47.19
2023-05-15T08:06:39.899Z,46.29
2023-05-15T08:09:07.029Z,46.56
2023-05-15T08:11:33.849Z,47.42
2023-05-15T08:14:00.767Z,48.18
2023-05-15T08:16:28.220Z,49.04
2023-05-15T08:18:58.977Z,49.72
2023-05-15T08:21:26.117Z,49.59
2023-05-15T08:23:54.818Z,50.35
2023-05-15T08:26:21.992Z,50.82
2023-05-15T08:28:49.176Z,50.72
2023-05-15T08:31:16.160Z,51.02
2023-05-15T08:33:43.272Z,51.59
2023-05-15T08:36:10.338Z,51.78
2023-05-15T08:38:37.223Z,51.83
2023-05-15T08:41:11.248Z,52.13
2023-05-15T08:43:39.603Z,52.03
2023-05-15T08:46:07.657Z,52.64
2023-05-15T08:48:38.246Z,52.38
2023-05-15T08:51:10.310Z,51.44
2023-05-15T08:53:37.749Z,52.33
2023-05-15T08:56:05.110Z,52.66
2023-05-15T08:58:32.985Z,52.45
2023-05-15T09:01:00.485Z,51.77
2023-05-15T09:03:27.822Z,52.21
2023-05-15T09:05:55.409Z,52.69
2023-05-15T09:08:24.215Z,52.91
2023-05-15T09:10:53.036Z,53.29
2023-05-15T09:13:20.076Z,53.53
2023-05-15T09:15:48.443Z,53.54
2023-05-15T09:18:16.745Z,54.04
2023-05-15T09:20:43.753Z,53.83
2023-05-15T09:23:27.613Z,53.78
2023-05-15T09:25:57.043Z,53.98
2023-05-15T09:28:28.246Z,53.24
2023-05-15T09:30:59.596Z,53.41
2023-05-15T09:33:35.531Z,54.16
2023-05-15T09:36:03.735Z,54.40
2023-05-15T09:38:33.523Z,54.16
2023-05-15T09:41:07.585Z,54.01
2023-05-15T09:43:37.106Z,53.28
2023-05-15T09:46:04.037Z,54.11
2023-05-15T09:48:33.867Z,52.65
2023-05-15T09:51:01.436Z,52.57
2023-05-15T09:53:30.044Z,53.42
2023-05-15T09:55:57.152Z,53.73
2023-05-15T09:58:24.080Z,53.95
2023-05-15T10:00:50.858Z,54.22
2023-05-15T10:03:22.110Z,54.24
2023-05-15T10:05:49.258Z,54.31
2023-05-15T10:08:16.892Z,54.56
2023-05-15T10:10:45.103Z,54.47
2023-05-15T10:13:12.437Z,54.42
2023-05-15T10:15:40.098Z,54.24
2023-05-15T10:18:08.093Z,53.00
2023-05-15T10:20:38.293Z,52.90
2023-05-15T10:23:06.767Z,53.74
2023-05-15T10:25:59.450Z,53.95
2023-05-15T10:28:27.690Z,53.46
2023-05-15T10:30:57.928Z,53.77
2023-05-15T10:33:25.818Z,54.24
2023-05-15T10:35:53.691Z,53.76
2023-05-15T10:38:21.588Z,53.68
2023-05-15T10:40:49.039Z,53.52
2023-05-15T10:43:16.076Z,54.05
2023-05-15T10:45:44.361Z,53.74
2023-05-15T10:48:12.701Z,53.30
2023-05-15T10:50:40.090Z,52.65
2023-05-15T10:53:09.326Z,52.90
2023-05-15T10:55:37.047Z,52.73
2023-05-15T10:58:10.246Z,53.31
2023-05-15T11:00:45.082Z,53.58
2023-05-15T11:03:15.987Z,52.72
2023-05-15T11:06:11.376Z,53.45
2023-05-15T11:08:40.122Z,52.77
2023-05-15T11:11:07.138Z,50.22
2023-05-15T11:14:04.778Z,50.75
2023-05-15T11:16:54.706Z,49.78
2023-05-15T11:19:57.966Z,50.42
2023-05-15T11:22:39.127Z,50.20
2023-05-15T11:25:12.335Z,51.17
2023-05-15T11:27:46.597Z,47.97
2023-05-15T11:30:23.160Z,49.71
2023-05-15T11:32:59.110Z,50.92
2023-05-15T11:35:38.782Z,48.52
2023-05-15T11:38:16.883Z,49.60
2023-05-15T11:41:16.785Z,47.90
2023-05-15T11:43:43.720Z,46.83
2023-05-15T11:46:13.053Z,43.90
2023-05-15T11:48:41.785Z,40.65
2023-05-15T11:51:26.286Z,37.67
2023-05-15T11:53:54.876Z,36.30
2023-05-15T11:56:23.757Z,34.58
2023-05-15T11:58:52.117Z,34.66
2023-05-15T12:01:19.231Z,35.33
2023-05-15T12:03:49.314Z,34.92
2023-05-15T12:06:16.983Z,34.44
2023-05-15T12:08:44.388Z,33.58
2023-05-15T12:11:13.536Z,33.20
2023-05-15T12:13:40.622Z,33.33
2023-05-15T12:16:07.668Z,33.03
2023-05-15T12:18:35.002Z,32.78
2023-05-15T12:21:02.132Z,32.12
2023-05-15T12:23:29.089Z,32.15
2023-05-15T12:26:01.143Z,31.70
2023-05-15T12:28:29.517Z,31.27
2023-05-15T12:30:57.750Z,30.80
2023-05-15T12:33:25.291Z,30.42
2023-05-15T12:35:59.935Z,30.51
2023-05-15T12:38:29.161Z,30.17
2023-05-15T12:40:57.413Z,30.03
2023-05-15T12:43:26.215Z,29.66
2023-05-15T12:45:54.857Z,30.08
2023-05-15T12:48:22.545Z,29.66
2023-05-15T12:50:50.419Z,29.81
2023-05-15T12:53:18.124Z,30.00
2023-05-15T12:55:47.080Z,29.83
2023-05-15T12:58:16.084Z,30.11
2023-05-15T13:00:46.479Z,29.92
2023-05-15T13:03:14.315Z,30.06
2023-05-15T13:05:46.003Z,29.94
2023-05-15T13:08:18.162Z,30.03
2023-05-15T13:10:46.557Z,29.87
2023-05-15T13:13:13.973Z,30.83
2023-05-15T13:15:43.933Z,31.28
2023-05-15T13:18:15.749Z,31.48
2023-05-15T13:20:43.828Z,31.44
2023-05-15T13:23:12.414Z,30.55
2023-05-15T13:25:39.261Z,29.79
2023-05-15T13:28:07.716Z,29.16
2023-05-15T13:30:35.865Z,29.10
2023-05-15T13:33:03.175Z,29.42
2023-05-15T13:35:30.198Z,29.53
2023-05-15T13:37:57.526Z,29.94
2023-05-15T13:40:24.789Z,29.36
2023-05-15T13:42:51.872Z,29.10
2023-05-15T13:45:19.082Z,28.70
2023-05-15T13:47:46.103Z,27.96
2023-05-15T13:50:15.422Z,27.51
2023-05-15T13:52:43.973Z,26.71
2023-05-15T13:55:11.606Z,26.44
2023-05-15T13:57:42.851Z,26.26
2023-05-15T14:00:15.295Z,26.26
2023-05-15T14:02:44.008Z,25.88
2023-05-15T14:05:13.113Z,25.64
2023-05-15T14:07:40.692Z,25.17
2023-05-15T14:10:08.483Z,25.14
2023-05-15T14:12:36.274Z,25.06
2023-05-15T14:15:03.423Z,25.32
2023-05-15T14:17:32.620Z,25.72
2023-05-15T14:19:59.597Z,25.49
2023-05-15T14:22:26.593Z,25.74
2023-05-15T14:24:53.724Z,26.08
2023-05-15T14:27:21.156Z,26.58
2023-05-15T14:29:49.454Z,26.43
2023-05-15T14:32:17.385Z,26.60
2023-05-15T14:34:44.654Z,26.05
2023-05-15T14:37:11.862Z,25.64
2023-05-15T14:39:39.086Z,25.95
2023-05-15T14:42:06.616Z,25.44
2023-05-15T14:44:34.294Z,24.86
2023-05-15T14:47:10.590Z,25.19
2023-05-15T14:49:37.981Z,24.87
2023-05-15T14:52:07.552Z,25.04
2023-05-15T14:54:35.984Z,24.79
2023-05-15T14:57:03.861Z,25.32
2023-05-15T14:59:31.567Z,25.08
2023-05-15T15:01:58.731Z,25.13
2023-05-15T15:04:26.924Z,25.11
2023-05-15T15:06:57.181Z,25.08
2023-05-15T15:09:26.414Z,25.09
2023-05-15T15:11:54.673Z,25.31
2023-05-15T15:14:21.554Z,24.97
2023-05-15T15:16:48.659Z,24.70
2023-05-15T15:19:18.186Z,24.24
2023-05-15T15:21:46.960Z,24.52
2023-05-15T15:24:14.011Z,24.46
2023-05-15T15:26:41.532Z,23.92
2023-05-15T15:29:08.585Z,23.63
2023-05-15T15:31:35.981Z,23.46
2023-05-15T15:34:05.302Z,23.28
2023-05-15T15:36:33.080Z,22.75
2023-05-15T15:38:59.968Z,23.20
2023-05-15T15:41:29.968Z,23.20
2023-05-15T15:43:56.875Z,22.94
2023-05-15T15:46:23.833Z,22.77
2023-05-15T15:48:51.238Z,22.52
2023-05-15T15:51:18.154Z,22.23
2023-05-15T15:53:45.313Z,22.01
2023-05-15T15:56:12.192Z,21.92
2023-05-15T15:58:39.011Z,21.66
2023-05-15T16:01:06.141Z,21.41
2023-05-15T16:03:33.691Z,21.52
2023-05-15T16:06:00.700Z,21.43
2023-05-15T16:08:27.981Z,21.27
2023-05-15T16:10:55.311Z,21.27
2023-05-15T16:13:22.316Z,21.30
2023-05-15T16:15:49.297Z,21.24
2023-05-15T16:18:16.992Z,21.04
2023-05-15T16:20:44.031Z,20.45
2023-05-15T16:23:15.217Z,20.30
2023-05-15T16:25:45.471Z,20.27
2023-05-15T16:28:12.398Z,19.89
2023-05-15T16:30:48.822Z,19.44
2023-05-15T16:33:18.234Z,19.29
2023-05-15T16:35:46.002Z,19.32
2023-05-15T16:38:13.643Z,19.11
2023-05-15T16:40:40.881Z,19.03
2023-05-15T16:43:08.027Z,18.67
2023-05-15T16:45:35.072Z,18.63
2023-05-15T16:48:02.197Z,18.51
2023-05-15T16:50:31.295Z,18.26
2023-05-15T16:52:58.426Z,17.95
2023-05-15T16:55:25.550Z,18.05
2023-05-15T16:57:52.407Z,18.09
2023-05-15T17:00:21.308Z,17.77
2023-05-15T17:02:49.069Z,17.78
2023-05-15T17:05:16.794Z,17.57
2023-05-15T17:07:44.814Z,17.82
2023-05-15T17:10:12.668Z,17.49
2023-05-15T17:12:40.115Z,17.53
2023-05-15T17:15:08.004Z,17.17
2023-05-15T17:17:35.310Z,17.13
2023-05-15T17:20:03.254Z,17.03
2023-05-15T17:22:30.718Z,17.03
2023-05-15T17:24:58.088Z,16.89
2023-05-15T17:27:25.304Z,16.65
2023-05-15T17:29:52.457Z,16.30
2023-05-15T17:32:19.761Z,16.07
2023-05-15T17:34:47.336Z,16.14
2023-05-15T17:37:14.653Z,16.03
2023-05-15T17:39:42.155Z,15.70
2023-05-15T17:42:08.984Z,15.67
2023-05-15T17:44:35.824Z,15.71
2023-05-15T17:47:02.841Z,15.44
2023-05-15T17:49:30.056Z,15.17
2023-05-15T17:51:57.137Z,14.88
2023-05-15T17:54:24.367Z,14.74
2023-05-15T17:56:51.466Z,14.50
2023-05-15T17:59:18.297Z,14.42
2023-05-15T18:01:45.530Z,14.40
2023-05-15T18:04:12.557Z,14.58
2023-05-15T18:06:39.514Z,14.27
2023-05-15T18:09:06.608Z,14.09
2023-05-15T18:11:33.625Z,13.91
2023-05-15T18:14:00.641Z,13.75
2023-05-15T18:16:28.359Z,13.66
2023-05-15T18:18:55.994Z,13.50
2023-05-15T18:21:22.957Z,13.35
2023-05-15T18:23:50.123Z,13.26
2023-05-15T18:26:17.292Z,13.13
2023-05-15T18:28:44.249Z,13.07
2023-05-15T18:31:11.245Z,13.16
2023-05-15T18:33:39.796Z,12.91
2023-05-15T18:36:07.737Z,13.11
2023-05-15T18:38:35.034Z,13.06
2023-05-15T18:41:03.170Z,12.70
2023-05-15T18:43:30.133Z,12.52
2023-05-15T18:45:57.199Z,12.33
2023-05-15T18:48:24.174Z,12.26
2023-05-15T18:50:53.091Z,12.15
2023-05-15T18:53:22.082Z,12.06
2023-05-15T18:55:49.263Z,12.07
2023-05-15T18:58:16.304Z,12.12
2023-05-15T19:00:43.373Z,11.96
2023-05-15T19:03:11.072Z,11.99
2023-05-15T19:05:38.160Z,12.06
2023-05-15T19:08:05.312Z,11.90
2023-05-15T19:10:32.280Z,12.01
2023-05-15T19:12:59.053Z,11.98
2023-05-15T19:15:26.729Z,11.94
2023-05-15T19:17:53.651Z,12.02
2023-05-15T19:20:21.147Z,11.93
2023-05-15T19:22:48.442Z,12.18
2023-05-15T19:25:15.485Z,12.25
2023-05-15T19:27:42.499Z,12.29
2023-05-15T19:30:10.218Z,12.04
2023-05-15T19:32:37.439Z,12.09
2023-05-15T19:35:05.867Z,11.87
2023-05-15T19:37:32.722Z,11.75
2023-05-15T19:39:59.524Z,11.90
2023-05-15T19:42:26.785Z,11.96
2023-05-15T19:44:53.755Z,11.99
2023-05-15T19:47:21.072Z,12.16
2023-05-15T19:49:48.056Z,12.15
2023-05-15T19:52:16.536Z,11.83
2023-05-15T19:54:44.369Z,11.86
2023-05-15T19:57:11.399Z,11.90
2023-05-15T19:59:38.404Z,11.99
2023-05-15T20:02:09.370Z,12.27
2023-05-15T20:04:37.289Z,12.29
2023-05-15T20:07:04.556Z,12.13
2023-05-15T20:09:31.400Z,11.88
2023-05-15T20:11:58.536Z,11.88
2023-05-15T20:14:25.490Z,11.92
2023-05-15T20:16:53.530Z,11.87
2023-05-15T20:19:23.364Z,11.70
2023-05-15T20:21:52.876Z,11.49
2023-05-15T20:24:19.875Z,11.44
2023-05-15T20:26:46.662Z,11.59
2023-05-15T20:29:13.709Z,11.56
2023-05-15T20:31:40.781Z,11.45
2023-05-15T20:34:08.695Z,11.52
2023-05-15T20:36:39.023Z,11.66
2023-05-15T20:39:07.666Z,11.68
2023-05-15T20:41:34.792Z,11.67
2023-05-15T20:44:01.903Z,11.88
2023-05-15T20:46:30.236Z,11.84
2023-05-15T20:48:57.784Z,11.80
2023-05-15T20:51:25.037Z,11.70
2023-05-15T20:53:52.012Z,11.56
2023-05-15T20:56:19.310Z,11.62
2023-05-15T20:58:46.637Z,11.81
2023-05-15T21:01:13.831Z,11.33
2023-05-15T21:03:41.199Z,11.42
2023-05-15T21:06:08.994Z,11.26
2023-05-15T21:08:36.131Z,11.08
2023-05-15T21:11:02.971Z,11.10
2023-05-15T21:13:29.972Z,10.87
2023-05-15T21:15:56.866Z,10.82
2023-05-15T21:18:24.069Z,10.72
2023-05-15T21:20:51.128Z,10.84
2023-05-15T21:23:18.450Z,10.81
2023-05-15T21:25:45.441Z,10.83
2023-05-15T21:28:12.295Z,11.00
2023-05-15T21:30:39.338Z,11.14
2023-05-15T21:33:06.546Z,11.15
2023-05-15T21:35:33.493Z,10.94
2023-05-15T21:38:00.714Z,11.04
2023-05-15T21:40:28.000Z,11.15
2023-05-15T21:42:54.877Z,11.07
2023-05-15T21:45:22.110Z,11.39
2023-05-15T21:47:49.730Z,11.24
2023-05-15T21:50:16.549Z,11.18
2023-05-15T21:52:46.275Z,11.32
2023-05-15T21:55:13.128Z,11.31
2023-05-15T21:57:39.917Z,11.37
2023-05-15T22:00:08.604Z,11.34
2023-05-15T22:02:37.055Z,11.39
2023-05-15T22:05:04.765Z,11.32
2023-05-15T22:07:31.728Z,11.35
2023-05-15T22:09:58.598Z,11.44
2023-05-15T22:12:25.443Z,11.36
2023-05-15T22:14:58.987Z,10.98
2023-05-15T22:17:29.394Z,11.11
2023-05-15T22:20:07.096Z,11.13
2023-05-15T22:22:35.252Z,11.18
2023-05-15T22:25:02.448Z,11.13
2023-05-15T22:27:29.354Z,11.21
2023-05-15T22:29:56.594Z,11.02
2023-05-15T22:32:23.640Z,11.01
2023-05-15T22:34:50.690Z,10.97
2023-05-15T22:37:17.478Z,11.06
2023-05-15T22:39:44.574Z,11.22
2023-05-15T22:42:11.589Z,11.30
2023-05-15T22:44:38.497Z,11.21
2023-05-15T22:47:05.690Z,11.21
2023-05-15T22:49:32.498Z,11.15
2023-05-15T22:51:59.742Z,11.16
2023-05-15T22:54:26.667Z,10.86
2023-05-15T22:56:54.348Z,10.99
2023-05-15T22:59:21.475Z,11.05
2023-05-15T23:01:49.422Z,11.00
2023-05-15T23:04:17.710Z,11.03
2023-05-15T23:06:44.946Z,11.09
2023-05-15T23:09:12.086Z,11.07
2023-05-15T23:11:39.089Z,11.15
2023-05-15T23:14:07.529Z,11.24
2023-05-15T23:16:34.478Z,11.07
2023-05-15T23:19:01.731Z,11.25
2023-05-15T23:21:28.834Z,11.14
2023-05-15T23:23:55.798Z,10.81
2023-05-15T23:26:22.690Z,11.16
2023-05-15T23:28:50.255Z,11.02
2023-05-15T23:31:17.394Z,11.21
2023-05-15T23:33:44.367Z,11.05
2023-05-15T23:36:11.264Z,11.07
2023-05-15T23:38:38.698Z,11.07
2023-05-15T23:41:06.018Z,11.19
2023-05-15T23:43:32.940Z,11.14
2023-05-15T23:45:59.844Z,11.24
2023-05-15T23:48:26.754Z,11.26
2023-05-15T23:50:53.719Z,11.13
2023-05-15T23:53:20.960Z,11.37
2023-05-15T23:55:48.021Z,11.22
2023-05-15T23:58:14.968Z,11.13
